Flight Track Log - Related Links

Times and Time Zones

All times are in EDT time to prevent confusion due to time zone crossing. See the JBU1083 flight status page for this flight to view local times or setup timezone preferences in your user account.

Time Position Orientation Groundspeed Altitude Reporting Facility
EDT Latitude Longitude Course Direction KTS MPH feet Rate Location/Type
Fri 08:20:24 PM 40.6360 -73.7890 323° Northwest 92 106  Level FlightAware
Fri 08:20:54 PM 40.6470 -73.8130 301° West 155 178 600 1,579 Climbing FlightAware
Fri 08:21:02 PM 40.6500 -73.8190 303° West 150 173 1,000 2,333 Climbing FlightAware
Fri 08:21:12 PM 40.6510 -73.8270 279° West 150 173 1,300 1,400 Climbing FlightAware
Fri 08:21:32 PM 40.6440 -73.8450 243° Southwest 176 203 1,700 1,167 Climbing FlightAware
Fri 08:21:48 PM 40.6350 -73.8600 232° Southwest 199 229 2,000 1,059 Climbing FlightAware
Fri 08:22:06 PM 40.6240 -73.8770 230° Southwest 226 260 2,300 1,714 Climbing FlightAware
Fri 08:22:30 PM 40.6050 -73.9020 225° Southwest 258 297 3,200 2,455 Climbing FlightAware
Fri 08:22:50 PM 40.5840 -73.9180 210° Southwest 270 311 4,100 3,097 Climbing FlightAware
Fri 08:23:01 PM 40.5710 -73.9290 213° Southwest 274 315 4,800 3,484 Climbing FlightAware
Fri 08:23:21 PM 40.5490 -73.9470 212° Southwest 275 316 5,900 3,429 Climbing FlightAware
Fri 08:23:36 PM 40.5340 -73.9600 213° Southwest 271 312 6,800 3,385 Climbing FlightAware
Fri 08:24:00 PM 40.5080 -73.9790 209° Southwest 274 315 8,100 3,000 Climbing FlightAware
Fri 08:24:24 PM 40.4790 -73.9960 204° Southwest 284 327 9,200 2,588 Climbing FlightAware
Fri 08:24:51 PM 40.4460 -74.0140 203° Southwest 294 338 10,300 1,818 Climbing FlightAware
Fri 08:25:30 PM 40.3930 -74.0430 203° Southwest 337 388 11,200 1,479 Climbing FlightAware
Fri 08:26:04 PM 40.3410 -74.0710 202° Southwest 364 419 12,100 1,941 Climbing FlightAware
Fri 08:26:38 PM 40.2880 -74.1000 203° Southwest 372 428 13,400 2,333 Climbing FlightAware
Fri 08:27:16 PM 40.2270 -74.1330 202° Southwest 379 436 14,900 2,270 Climbing FlightAware
Fri 08:27:52 PM 40.1680 -74.1650 203° Southwest 384 442 16,200 2,028 Climbing FlightAware
Fri 08:28:27 PM 40.1090 -74.1970 203° Southwest 392 451 17,300 1,886 Climbing FlightAware
Fri 08:29:02 PM 40.0510 -74.2280 202° Southwest 398 458 18,400 1,853 Climbing FlightAware
Fri 08:29:35 PM 39.9950 -74.2630 206° Southwest 402 463 19,400 1,714 Climbing FlightAware
Fri 08:30:12 PM 39.9390 -74.3160 216° Southwest 408 470 20,400 1,726 Climbing FlightAware
Fri 08:30:48 PM 39.8850 -74.3670 216° Southwest 409 471 21,500 1,676 Climbing FlightAware
Fri 08:31:20 PM 39.8360 -74.4150 217° Southwest 411 473 22,300 1,594 Climbing FlightAware
Fri 08:31:52 PM 39.7910 -74.4660 221° Southwest 409 471 23,200 1,437 Climbing FlightAware
Fri 08:32:31 PM 39.7400 -74.5340 226° Southwest 416 479 24,000 1,216 Climbing FlightAware
Fri 08:33:06 PM 39.6940 -74.5960 226° Southwest 422 486 24,700 1,200 Climbing FlightAware
Fri 08:33:41 PM 39.6450 -74.6610 226° Southwest 429 494 25,400 1,200 Climbing FlightAware
Fri 08:34:11 PM 39.6040 -74.7150 225° Southwest 432 497 26,000 917 Climbing FlightAware
Fri 08:34:53 PM 39.5420 -74.7970 226° Southwest 441 507 26,500 923 Climbing FlightAware
Fri 08:35:29 PM 39.4900 -74.8650 225° Southwest 445 512 27,200 1,147 Climbing FlightAware
Fri 08:36:01 PM 39.4440 -74.9250 225° Southwest 450 518 27,800 1,114 Climbing FlightAware
Fri 08:36:39 PM 39.3870 -74.9980 225° Southwest 455 524 28,500 1,083 Climbing FlightAware
Fri 08:37:13 PM 39.3300 -75.0560 218° Southwest 461 531 29,100 857 Climbing FlightAware
Fri 08:37:49 PM 39.2630 -75.1090 211° Southwest 471 542 29,500 882 Climbing FlightAware
Fri 08:38:21 PM 39.2070 -75.1440 206° Southwest 474 545 30,100 1,412 Climbing FlightAware
Fri 08:38:57 PM 39.1260 -75.1810 200° South 469 540 31,100 1,667 Climbing FlightAware
Fri 08:39:33 PM 39.0530 -75.2150 200° South 462 532 32,100 1,457 Climbing FlightAware
Fri 08:40:07 PM 38.9850 -75.2440 198° South 460 529 32,800 1,114 Climbing FlightAware
Fri 08:40:43 PM 38.9120 -75.2750 198° South 460 529 33,400 1,059 Climbing FlightAware
Fri 08:41:15 PM 38.8460 -75.3030 198° South 460 529 34,000 971 Climbing FlightAware
Fri 08:41:51 PM 38.7730 -75.3330 198° South 459 528 34,500 1,029 Climbing FlightAware
Fri 08:42:25 PM 38.7060 -75.3610 198° South 456 525 35,200 943 Climbing FlightAware
Fri 08:43:01 PM 38.6360 -75.3900 198° South 458 527 35,600 649 Climbing FlightAware
Fri 08:43:39 PM 38.5590 -75.4300 202° Southwest 454 522 36,000 338 Climbing FlightAware
Fri 08:44:12 PM 38.4980 -75.4680 206° Southwest 454 522 36,000  Level FlightAware
Fri 08:44:43 PM 38.4420 -75.5030 206° Southwest 457 526 36,000  Level FlightAware
Fri 08:45:25 PM 38.3580 -75.5540 205° Southwest 458 527 36,000  Level FlightAware
Fri 08:46:07 PM 38.2770 -75.6040 206° Southwest 459 528 36,000  Level FlightAware
Fri 08:46:39 PM 38.2180 -75.6400 206° Southwest 459 528 36,000  Level FlightAware
Fri 08:47:12 PM 38.1530 -75.6800 206° Southwest 460 529 36,000  Level FlightAware
Fri 08:47:46 PM 38.0900 -75.7190 206° Southwest 461 531 36,000  Level FlightAware
Fri 08:48:24 PM 38.0160 -75.7630 205° Southwest 462 532 36,000  Level FlightAware
Fri 08:48:54 PM 37.9570 -75.7990 206° Southwest 462 532 36,000  Level FlightAware
Fri 08:49:33 PM 37.8850 -75.8430 206° Southwest 462 532 36,000  Level FlightAware
Fri 08:50:08 PM 37.8150 -75.8840 205° Southwest 461 531 36,000  Level FlightAware
Fri 08:50:45 PM 37.7450 -75.9270 206° Southwest 460 529 36,000  Level FlightAware
Fri 08:51:15 PM 37.6870 -75.9620 206° Southwest 461 531 36,000  Level FlightAware
Fri 08:51:52 PM 37.6260 -75.9990 206° Southwest 462 532 36,000  Level FlightAware
Fri 08:52:26 PM 37.5530 -76.0430 206° Southwest 463 533 36,000  Level FlightAware
Fri 08:53:00 PM 37.4830 -76.0840 205° Southwest 465 535 36,000  Level FlightAware
Fri 08:53:35 PM 37.4190 -76.1230 206° Southwest 465 535 36,000  Level FlightAware
Fri 08:54:10 PM 37.3510 -76.1630 205° Southwest 465 535 36,000  Level FlightAware
Fri 08:54:52 PM 37.2680 -76.2130 206° Southwest 466 536 36,000  Level FlightAware
Fri 08:55:29 PM 37.1930 -76.2570 205° Southwest 466 536 36,000  Level FlightAware
Fri 08:56:07 PM 37.1190 -76.3010 205° Southwest 467 537 36,000  Level FlightAware
Fri 08:56:43 PM 37.0490 -76.3420 205° Southwest 468 539 36,000  Level FlightAware
Fri 08:57:15 PM 36.9840 -76.3810 206° Southwest 468 539 36,000  Level FlightAware
Fri 08:57:51 PM 36.9130 -76.4220 205° Southwest 469 540 36,000  Level FlightAware
Fri 08:58:25 PM 36.8490 -76.4600 205° Southwest 470 541 36,000  Level FlightAware
Fri 08:59:01 PM 36.7760 -76.5030 205° Southwest 470 541 36,000  Level FlightAware
Fri 08:59:35 PM 36.7090 -76.5410 204° Southwest 473 544 36,000  Level FlightAware
Fri 09:00:11 PM 36.6360 -76.5720 199° South 474 545 36,000  Level FlightAware
Fri 09:00:43 PM 36.5660 -76.6010 198° South 474 545 36,000  Level FlightAware
Fri 09:01:18 PM 36.4990 -76.6300 199° South 472 543 36,000  Level FlightAware
Fri 09:01:57 PM 36.4180 -76.6640 199° South 463 533 36,000  Level FlightAware
Fri 09:02:32 PM 36.3440 -76.6950 199° South 462 532 36,000  Level FlightAware
Fri 09:03:02 PM 36.2820 -76.7210 199° South 463 533 36,000  Level FlightAware
Fri 09:03:37 PM 36.2100 -76.7510 199° South 471 542 36,000  Level FlightAware
Fri 09:04:17 PM 36.1280 -76.7850 199° South 471 542 36,000  Level FlightAware
Fri 09:04:47 PM 36.0660 -76.8110 199° South 472 543 36,000  Level FlightAware
Fri 09:05:32 PM 35.9760 -76.8480 198° South 471 542 36,000  Level FlightAware
Fri 09:06:09 PM 35.8990 -76.8800 199° South 471 542 36,000  Level FlightAware
Fri 09:06:33 PM 35.8510 -76.8990 198° South 470 541 36,000  Level FlightAware
Fri 09:07:27 PM 35.7510 -76.9410 199° South 471 542 36,000  Level FlightAware
Fri 09:08:00 PM 35.7550 -76.9400 11° North 471 542 36,000  Level FlightAware
Fri 09:08:36 PM 35.6030 -77.0020 198° South 471 542 36,000  Level FlightAware
Fri 09:09:13 PM 35.5380 -77.0300 199° South 471 542 36,000  Level FlightAware
Fri 09:09:50 PM 35.4730 -77.0570 199° South 471 542 36,000  Level FlightAware
Fri 09:10:26 PM 35.4100 -77.0840 199° South 471 542 36,000  Level FlightAware
Fri 09:11:02 PM 35.3470 -77.1100 199° South 471 542 36,000  Level FlightAware
Fri 09:11:48 PM 35.1970 -77.1670 197° South 478 550 36,000  Level FlightAware
Fri 09:12:22 PM 35.1220 -77.1970 198° South 478 550 36,000  Level FlightAware
Fri 09:12:55 PM 35.0490 -77.2270 199° South 478 550 36,000  Level FlightAware
Fri 09:13:35 PM 34.9650 -77.2610 198° South 478 550 36,000  Level FlightAware
Fri 09:14:12 PM 34.8920 -77.2900 198° South 478 550 36,000  Level FlightAware
Fri 09:14:48 PM 34.8140 -77.3220 199° South 479 551 36,000  Level FlightAware
Fri 09:15:23 PM 34.7460 -77.3490 198° South 479 551 36,000  Level FlightAware
Fri 09:16:03 PM 34.6550 -77.3850 198° South 480 552 36,000  Level FlightAware
Fri 09:16:33 PM 34.5900 -77.4110 198° South 481 554 36,000  Level FlightAware
Fri 09:17:15 PM 34.5020 -77.4460 198° South 482 555 36,000  Level FlightAware
Fri 09:17:46 PM 34.4390 -77.4710 198° South 482 555 36,000  Level FlightAware
Fri 09:18:41 PM 34.3370 -77.5120 198° South 484 557 36,000  Level FlightAware
Fri 09:19:17 PM 34.2720 -77.5370 198° South 484 557 36,000  Level FlightAware
Fri 09:19:58 PM 34.3390 -77.5110 18° North 483 556 36,000  Level FlightAware
Fri 09:20:34 PM 34.2740 -77.5360 198° South 483 556 36,000  Level FlightAware
Fri 09:21:07 PM 34.0130 -77.6400 198° South 483 556 36,000 90 Level FlightAware
Fri 09:21:41 PM 33.9450 -77.6670 198° South 481 554 36,100  Climbing FlightAware
Fri 09:22:30 PM 33.8500 -77.7040 198° South 480 552 36,000 -75 Descending FlightAware
Fri 09:23:01 PM 33.7700 -77.7350 198° South 479 551 36,000  Level FlightAware
Fri 09:23:36 PM 33.6950 -77.7650 198° South 481 554 36,000  Level FlightAware
Fri 09:24:17 PM 33.6200 -77.7940 198° South 481 554 36,000  Level FlightAware
Fri 09:24:56 PM 33.5500 -77.8210 198° South 481 554 36,000  Level FlightAware
Fri 09:25:33 PM 33.4840 -77.8470 198° South 481 554 36,000  Level FlightAware
Fri 09:26:01 PM 33.4330 -77.8670 198° South 481 554 36,000  Level FlightAware
Fri 09:26:37 PM 33.3680 -77.8920 198° South 481 554 36,000  Level FlightAware
Fri 09:27:15 PM 33.3000 -77.9190 198° South 481 554 36,000  Level FlightAware
Fri 09:27:48 PM 33.6650 -77.7760 18° North 36,000  Level FlightAware
Fri 09:28:08 PM 33.1220 -77.9870 198° South 478 550 36,000  Level FlightAware
Fri 09:29:06 PM 33.0080 -78.0310 198° South 478 550 36,000  Level FlightAware
Fri 09:29:42 PM 32.9430 -78.0560 198° South 478 550 36,000  Level FlightAware
Fri 09:30:18 PM 32.8430 -78.0940 198° South 481 554 36,000  Level FlightAware
Fri 09:31:13 PM 32.7260 -78.1390 198° South 483 556 36,000  Level FlightAware
Fri 09:31:58 PM 32.6360 -78.1730 198° South 483 556 36,000  Level FlightAware
Fri 09:32:43 PM 32.5360 -78.2110 198° South 482 555 36,000  Level FlightAware
Fri 09:33:23 PM 32.4510 -78.2430 198° South 480 552 36,000  Level FlightAware
Fri 09:34:13 PM 32.3450 -78.2840 198° South 479 551 36,000  Level FlightAware
Fri 09:34:53 PM 32.2610 -78.3150 197° South 476 548 36,000  Level FlightAware
Fri 09:35:28 PM 32.1940 -78.3410 198° South 473 544 36,000 86 Level FlightAware
Fri 09:36:03 PM 32.1940 -78.3410 198° South 468 539 36,100  Climbing FlightAware
Fri 09:36:53 PM 32.0190 -78.4060 197° South 466 536 36,000 -69 Descending FlightAware
Fri 09:37:30 PM 31.9540 -78.4300 197° South 466 536 36,000  Level FlightAware
Fri 09:38:07 PM 31.8900 -78.4530 197° South 466 536 36,000  Level FlightAware
Fri 09:38:43 PM 31.8260 -78.4760 197° South 466 536 36,000  Level FlightAware
Fri 09:38:58 PM 32.0190 -78.4060 17° North 36,000  Level FlightAware
Fri 09:40:06 PM 31.6289 -78.5547 17° North 471 542 36,000  Level Jacksonville Center
Fri 09:41:06 PM 31.5011 -78.6019 197° South 471 542 36,000  Level Jacksonville Center
Fri 09:42:06 PM 31.3753 -78.6492 198° South 471 542 36,000  Level Jacksonville Center
Fri 09:43:06 PM 31.2536 -78.6936 197° South 471 542 36,000  Level Jacksonville Center
Fri 09:44:06 PM 31.1258 -78.7428 198° South 476 548 36,000  Level Jacksonville Center
Fri 09:45:06 PM 31.0039 -78.7847 196° South 476 548 36,000 -31 Level Jacksonville Center
Fri 09:47:18 PM 30.7244 -78.8842 197° South 475 547 35,900  Descending Miami Center
Fri 09:48:18 PM 30.6008 -78.9322 199° South 485 558 36,000 50 Climbing Miami Center
Fri 09:49:18 PM 30.4731 -78.9781 197° South 485 558 36,000  Level Miami Center
Fri 09:50:18 PM 30.3453 -79.0258 198° South 478 550 36,000  Level Miami Center
Fri 09:51:18 PM 30.2297 -79.0786 202° Southwest 472 543 36,000  Level Miami Center
Fri 09:52:19 PM 30.1036 -79.1361 202° Southwest 472 543 36,000  Level Miami Center
Fri 09:53:19 PM 29.9917 -79.2392 219° Southwest 472 543 36,000  Level Miami Center
Fri 09:54:20 PM 29.8900 -79.3300 218° Southwest 477 549 36,000 -49 Level Miami Center
Fri 09:55:21 PM 29.7969 -79.3972 212° Southwest 465 535 35,900 -50 Descending Miami Center
Fri 09:56:20 PM 29.6867 -79.5022 220° Southwest 465 535 35,900 -1,119 Level Miami Center
Fri 09:57:19 PM 29.5767 -79.5806 212° Southwest 465 535 33,700 -2,231 Descending Miami Center
Fri 09:58:21 PM 29.4750 -79.6711 218° Southwest 465 535 31,400 -2,200 Descending Miami Center
Fri 09:59:19 PM 29.3731 -79.7564 216° Southwest 465 535 29,300 -2,136 Descending Miami Center
Fri 10:00:19 PM 29.2711 -79.8394 215° Southwest 465 535 27,200 -2,083 Descending Miami Center
Fri 10:01:20 PM 29.1717 -79.9153 214° Southwest 458 527 25,100 -2,115 Descending Miami Center
Fri 10:02:21 PM 29.0781 -79.9981 218° Southwest 446 513 22,900 -2,132 Descending Miami Center
Fri 10:03:21 PM 28.9844 -80.0783 217° Southwest 439 505 20,800 -2,186 Descending Miami Center
Fri 10:04:19 PM 28.9053 -80.1686 225° Southwest 429 494 18,600 -1,512 Descending Miami Center
Fri 10:09:30 PM 28.7880 -80.7280 225° Southwest 303 349 11,500 -1,322 Descending FlightAware
Fri 10:10:04 PM 28.7800 -80.7820 260° West 297 342 11,000 -667 Descending FlightAware
Fri 10:11:00 PM 28.7680 -80.8630 260° West 300 345 10,500 -326 Descending FlightAware
Fri 10:11:36 PM 28.7610 -80.9100 260° West 300 345 10,500 -1,352 Level FlightAware
Fri 10:12:11 PM 28.7350 -80.9850 248° West 296 341 8,900 -2,500 Descending FlightAware
Fri 10:12:24 PM 28.7280 -81.0020 245° Southwest 295 339 8,500 -2,108 Descending FlightAware
Fri 10:12:48 PM 28.7140 -81.0350 244° Southwest 290 334 7,600 -2,133 Descending FlightAware
Fri 10:13:09 PM 28.7010 -81.0640 243° Southwest 286 329 6,900 -2,195 Descending FlightAware
Fri 10:13:29 PM 28.6890 -81.0930 245° Southwest 283 326 6,100 -1,500 Descending FlightAware
Fri 10:13:49 PM 28.6790 -81.1180 245° Southwest 268 308 5,900 -293 Descending FlightAware
Fri 10:14:10 PM 28.6690 -81.1450 247° West 245 282 5,900 -750 Level FlightAware
Fri 10:14:29 PM 28.6600 -81.1670 245° Southwest 249 287 5,400 -1,941 Descending FlightAware
Fri 10:14:44 PM 28.6520 -81.1860 244° Southwest 263 303 4,800 -2,108 Descending FlightAware
Fri 10:15:06 PM 28.6410 -81.2140 246° West 274 315 4,100 -1,737 Descending FlightAware
Fri 10:15:22 PM 28.6320 -81.2310 239° Southwest 275 316 3,700 -1,556 Descending FlightAware
Fri 10:15:33 PM 28.6210 -81.2450 228° Southwest 271 312 3,400 -1,000 Descending FlightAware
Fri 10:15:58 PM 28.6010 -81.2700 228° Southwest 249 287 3,100 -585 Descending FlightAware
Fri 10:16:14 PM 28.5900 -81.2830 226° Southwest 230 265 3,000 -154 Descending FlightAware
Fri 10:16:37 PM 28.5730 -81.3050 229° Southwest 198 228 3,000 -383 Level FlightAware
Fri 10:17:01 PM 28.5600 -81.3210 227° Southwest 177 204 2,700 -857 Descending FlightAware
Fri 10:17:05 PM 28.5580 -81.3230 221° Southwest 175 201 2,600 -1,200 Descending FlightAware
Fri 10:17:11 PM 28.5530 -81.3260 208° Southwest 169 194 2,500 -400 Descending FlightAware
Fri 10:17:20 PM 28.5470 -81.3280 196° South 153 176 2,500  Level FlightAware
Fri 10:17:29 PM 28.5410 -81.3280 180° South 150 173 2,500 -375 Level FlightAware
Fri 10:18:08 PM 28.5160 -81.3270 178° South 152 175 2,200 -1,429 Descending FlightAware
Fri 10:18:32 PM 28.4950 -81.3270 180° South 145 167 1,000 -2,154 Descending FlightAware
Fri 10:18:47 PM 28.4860 -81.3270 180° South 141 162 800 -293 Descending FlightAware
Fri 10:19:13 PM 28.4710 -81.3270 180° South 141 162 800 -429 Level FlightAware
Fri 10:19:43 PM 28.4530 -81.3270 180° South 134 154 400 -800 Descending FlightAware

Login

Don't have an account? Register now (free) for customized features, flight alerts, and more!